Time;durP1;ratioP1;P1;durP2;ratioP2;P2;SDS_P1;SDS_P2;PMS_P1;PMS_P2;Temp;Humidity;BMP_temperature;BMP_pressure;BME280_temperature;BME280_humidity;BME280_pressure;Samples;Min_cycle;Max_cycle;Signal;HPM_P1;HPM_P2
2022/12/22 03:26:39;;;;;;;;;;;;;;;20.36;29.10;101171.11;102027;1332;72611;-80
2022/12/22 03:29:04;;;;;;;;;;;;;;;20.36;28.96;101172.41;101930;1330;61331;-80
2022/12/22 03:31:30;;;;;;;;;;;;;;;20.36;28.99;101171.31;101954;1332;61752;-80
2022/12/22 03:33:55;;;;;;;;;;;;;;;20.37;29.06;101168.61;102085;1329;61371;-80
2022/12/22 03:36:20;;;;;;;;;;;;;;;20.37;29.07;101170.76;102144;1329;61261;-80
2022/12/22 03:38:46;;;;;;;;;;;;;;;20.37;29.16;101173.61;102088;1333;61401;-80
2022/12/22 03:46:29;;;;;;;;;;;;;;;20.36;28.91;101168.80;102114;1333;61318;-81
2022/12/22 03:46:41;;;;;;;;;;;;;;;20.36;29.13;101167.02;102001;1328;61365;-80
2022/12/22 03:49:09;;;;;;;;;;;;;;;20.37;29.08;101167.17;102045;1326;61400;-80
2022/12/22 03:51:45;;;;;;;;;;;;;;;20.37;29.13;101169.64;102077;1329;76134;-80
2022/12/22 03:54:11;;;;;;;;;;;;;;;20.37;29.07;101169.48;102010;1329;61287;-80
2022/12/22 03:56:36;;;;;;;;;;;;;;;20.37;29.14;101164.63;102159;1329;61344;-80
2022/12/22 03:59:02;;;;;;;;;;;;;;;20.37;28.99;101169.28;102061;1329;61334;-80
2022/12/22 04:01:27;;;;;;;;;;;;;;;20.37;29.02;101170.87;102092;1328;60223;-80
2022/12/22 04:03:53;;;;;;;;;;;;;;;20.37;29.11;101176.77;102131;1326;61307;-80
2022/12/22 04:06:18;;;;;;;;;;;;;;;20.38;29.16;101179.42;102117;1327;61283;-80
2022/12/22 04:08:44;;;;;;;;;;;;;;;20.38;29.12;101180.33;101993;1329;61408;-81
2022/12/22 04:13:54;;;;;;;;;;;;;;;20.39;28.95;101175.83;102079;1327;74610;-81
2022/12/22 04:16:20;;;;;;;;;;;;;;;20.38;29.10;101174.08;102097;1329;61410;-80
2022/12/22 04:18:45;;;;;;;;;;;;;;;20.38;29.07;101181.55;102088;1328;61270;-80
2022/12/22 04:21:11;;;;;;;;;;;;;;;20.38;29.17;101176.39;101982;1333;61389;-80
2022/12/22 04:23:36;;;;;;;;;;;;;;;20.38;29.15;101175.85;102120;1325;61427;-80
2022/12/22 04:26:01;;;;;;;;;;;;;;;20.37;28.99;101172.48;102075;1329;61161;-80
2022/12/22 04:28:27;;;;;;;;;;;;;;;20.38;29.07;101171.75;102162;1326;61427;-80
2022/12/22 04:30:52;;;;;;;;;;;;;;;20.38;28.95;101170.67;102157;1326;61427;-80
2022/12/22 04:33:17;;;;;;;;;;;;;;;20.38;28.98;101171.73;102180;1326;61244;-80
2022/12/22 04:35:43;;;;;;;;;;;;;;;20.38;28.91;101169.95;102101;1330;73027;-80
2022/12/22 04:38:08;;;;;;;;;;;;;;;20.38;28.93;101170.30;102016;1323;61329;-80
2022/12/22 04:40:34;;;;;;;;;;;;;;;20.39;29.10;101173.67;102093;1329;61331;-80
2022/12/22 04:43:00;;;;;;;;;;;;;;;20.39;28.97;101177.95;102114;1323;60262;-80
2022/12/22 04:45:25;;;;;;;;;;;;;;;20.39;29.02;101179.91;102106;1332;61278;-80
2022/12/22 04:47:50;;;;;;;;;;;;;;;20.39;29.08;101181.52;102021;1327;72614;-80
2022/12/22 04:50:16;;;;;;;;;;;;;;;20.39;28.99;101177.96;101995;1334;61401;-80
2022/12/22 04:52:41;;;;;;;;;;;;;;;20.39;29.08;101173.48;102042;1324;61451;-80
2022/12/22 04:55:08;;;;;;;;;;;;;;;20.39;29.10;101175.29;102166;1332;61425;-80
2022/12/22 04:57:34;;;;;;;;;;;;;;;20.38;29.04;101174.42;102137;1325;61295;-80
2022/12/22 05:00:02;;;;;;;;;;;;;;;20.38;28.98;101184.41;102076;1332;61742;-80
2022/12/22 05:02:28;;;;;;;;;;;;;;;20.38;28.83;101184.98;102111;1327;61257;-80
2022/12/22 05:04:53;;;;;;;;;;;;;;;20.38;28.96;101189.41;102089;1332;61366;-80
2022/12/22 05:07:19;;;;;;;;;;;;;;;20.37;29.02;101185.71;102082;1327;61827;-80
2022/12/22 05:09:45;;;;;;;;;;;;;;;20.37;29.01;101188.02;102029;1325;73760;-80
2022/12/22 05:14:54;;;;;;;;;;;;;;;20.38;28.99;101188.73;102075;1319;61539;-80
2022/12/22 05:17:20;;;;;;;;;;;;;;;20.38;28.94;101185.70;102082;1333;61385;-80
2022/12/22 05:19:45;;;;;;;;;;;;;;;20.38;28.97;101186.04;102077;1327;61187;-80
2022/12/22 05:22:11;;;;;;;;;;;;;;;20.39;28.96;101187.04;102087;1332;61391;-80
2022/12/22 05:24:36;;;;;;;;;;;;;;;20.39;28.89;101184.52;102088;1329;61392;-80
2022/12/22 05:27:01;;;;;;;;;;;;;;;20.40;28.95;101185.59;102091;1326;61337;-80
2022/12/22 05:29:27;;;;;;;;;;;;;;;20.40;29.13;101184.82;102057;1327;61303;-80
2022/12/22 05:31:52;;;;;;;;;;;;;;;20.40;28.87;101186.64;102140;1329;61467;-80
2022/12/22 05:34:18;;;;;;;;;;;;;;;20.40;28.97;101189.30;102132;1328;61382;-80
2022/12/22 05:36:43;;;;;;;;;;;;;;;20.40;28.94;101192.48;102192;1329;61440;-80
2022/12/22 05:39:09;;;;;;;;;;;;;;;20.41;29.12;101190.51;102100;1329;60119;-80
2022/12/22 05:41:34;;;;;;;;;;;;;;;20.42;28.93;101193.83;102070;1325;61325;-80
2022/12/22 05:43:59;;;;;;;;;;;;;;;20.44;29.00;101193.02;102160;1327;61283;-80
2022/12/22 05:46:25;;;;;;;;;;;;;;;20.45;29.03;101191.52;102193;1328;61397;-80
2022/12/22 05:48:50;;;;;;;;;;;;;;;20.45;28.89;101189.38;102251;1326;74608;-80
2022/12/22 05:51:15;;;;;;;;;;;;;;;20.46;28.91;101193.08;102142;1329;59324;-80
2022/12/22 05:53:41;;;;;;;;;;;;;;;20.46;28.93;101195.38;102243;1327;61364;-80
2022/12/22 05:56:07;;;;;;;;;;;;;;;20.48;29.06;101190.27;102271;1326;61408;-80
2022/12/22 05:58:32;;;;;;;;;;;;;;;20.49;28.99;101196.29;102288;1330;61257;-80
2022/12/22 06:00:58;;;;;;;;;;;;;;;20.50;28.94;101195.66;102221;1326;74690;-81
2022/12/22 06:03:24;;;;;;;;;;;;;;;20.50;28.92;101190.83;102100;1327;61270;-81
2022/12/22 06:05:50;;;;;;;;;;;;;;;20.50;28.96;101195.52;102063;1333;59971;-81
2022/12/22 06:08:15;;;;;;;;;;;;;;;20.51;29.04;101195.25;102273;1318;61310;-80
2022/12/22 06:10:40;;;;;;;;;;;;;;;20.52;28.79;101194.97;102243;1316;61273;-80
2022/12/22 06:13:06;;;;;;;;;;;;;;;20.53;28.94;101191.92;102310;1333;61302;-80
2022/12/22 06:15:31;;;;;;;;;;;;;;;20.53;28.89;101190.98;102253;1326;61384;-80
2022/12/22 06:17:57;;;;;;;;;;;;;;;20.54;28.91;101188.61;102250;1326;61277;-80
2022/12/22 06:20:22;;;;;;;;;;;;;;;20.55;28.88;101193.36;102287;1326;61307;-80
2022/12/22 06:22:48;;;;;;;;;;;;;;;20.56;29.00;101194.72;102288;1318;61374;-80
2022/12/22 06:25:13;;;;;;;;;;;;;;;20.57;28.89;101196.81;102276;1332;61277;-80
2022/12/22 06:27:38;;;;;;;;;;;;;;;20.58;28.75;101199.07;102251;1310;60037;-80
2022/12/22 06:30:04;;;;;;;;;;;;;;;20.58;28.91;101202.63;102301;1319;61478;-81
2022/12/22 06:32:30;;;;;;;;;;;;;;;20.59;29.03;101204.01;102256;1327;61271;-81
2022/12/22 06:34:55;;;;;;;;;;;;;;;20.60;28.99;101204.33;102272;1330;59519;-81
2022/12/22 06:37:20;;;;;;;;;;;;;;;20.61;28.97;101207.15;102295;1334;61312;-81
2022/12/22 06:39:46;;;;;;;;;;;;;;;20.62;28.98;101207.48;102194;1330;61269;-81
2022/12/22 06:44:55;;;;;;;;;;;;;;;20.62;28.89;101201.02;102260;1327;72680;-80
2022/12/22 06:47:21;;;;;;;;;;;;;;;20.63;28.92;101196.66;102221;1319;61440;-80
2022/12/22 06:49:46;;;;;;;;;;;;;;;20.63;28.90;101198.08;102318;1317;61434;-81
2022/12/22 06:52:12;;;;;;;;;;;;;;;20.63;28.96;101198.98;102165;1329;61316;-81
2022/12/22 06:54:37;;;;;;;;;;;;;;;20.63;28.96;101195.56;102227;1319;61280;-81
2022/12/22 06:57:03;;;;;;;;;;;;;;;20.64;28.93;101192.29;102162;1320;59428;-81
2022/12/22 06:59:28;;;;;;;;;;;;;;;20.65;28.99;101197.09;102185;1329;59884;-81
2022/12/22 07:01:53;;;;;;;;;;;;;;;20.65;28.98;101196.52;102179;1318;59308;-81
2022/12/22 07:04:20;;;;;;;;;;;;;;;20.66;29.01;101196.11;102239;1326;61244;-80
2022/12/22 07:06:46;;;;;;;;;;;;;;;20.65;29.02;101200.09;102147;1327;61195;-82
2022/12/22 07:09:12;;;;;;;;;;;;;;;20.65;29.19;101196.13;102293;1326;61148;-81
2022/12/22 07:11:37;;;;;;;;;;;;;;;20.66;29.09;101201.98;102137;1326;74300;-81
2022/12/22 07:14:03;;;;;;;;;;;;;;;20.67;28.84;101199.80;102177;1319;62012;-80
2022/12/22 07:16:28;;;;;;;;;;;;;;;20.68;29.00;101199.94;102236;1320;60195;-80
2022/12/22 07:18:53;;;;;;;;;;;;;;;20.67;29.10;101197.09;102189;1326;61298;-80
2022/12/22 07:21:19;;;;;;;;;;;;;;;20.68;29.04;101196.71;102251;1333;61324;-80
2022/12/22 07:23:44;;;;;;;;;;;;;;;20.68;29.12;101198.66;102141;1326;60051;-80
2022/12/22 07:26:10;;;;;;;;;;;;;;;20.68;29.00;101197.04;102149;1326;61388;-80
2022/12/22 07:28:35;;;;;;;;;;;;;;;20.68;29.03;101196.70;102214;1318;61473;-81
2022/12/22 07:31:01;;;;;;;;;;;;;;;20.68;29.12;101198.99;102202;1327;59231;-81
2022/12/22 07:33:26;;;;;;;;;;;;;;;20.69;29.10;101201.33;102166;1329;61278;-81
2022/12/22 07:36:06;;;;;;;;;;;;;;;20.69;29.19;101205.57;102216;1330;61369;-81
2022/12/22 07:38:32;;;;;;;;;;;;;;;20.70;28.96;101203.79;102210;1335;61016;-81
2022/12/22 07:40:58;;;;;;;;;;;;;;;20.69;29.01;101202.88;102213;1334;61156;-81
2022/12/22 07:43:24;;;;;;;;;;;;;;;20.69;29.11;101196.45;102136;1327;61421;-81
2022/12/22 07:45:49;;;;;;;;;;;;;;;20.69;28.95;101195.39;102098;1330;60060;-80
2022/12/22 07:51:06;;;;;;;;;;;;;;;20.70;29.11;101197.84;102124;1326;60114;-81
2022/12/22 07:53:32;;;;;;;;;;;;;;;20.72;28.96;101204.17;102082;1327;60112;-81
2022/12/22 07:56:02;;;;;;;;;;;;;;;20.72;29.05;101206.66;102237;1318;61079;-81
2022/12/22 07:58:27;;;;;;;;;;;;;;;20.72;29.04;101203.77;102557;1332;61157;-81
2022/12/22 08:00:58;;;;;;;;;;;;;;;20.74;29.12;101209.02;102204;1314;61393;-81
2022/12/22 08:03:24;;;;;;;;;;;;;;;20.75;29.34;101208.44;102234;1310;72917;-81
2022/12/22 08:05:49;;;;;;;;;;;;;;;20.77;29.38;101204.16;102329;1330;61513;-82
2022/12/22 08:08:15;;;;;;;;;;;;;;;20.80;29.30;101202.98;102311;1330;61272;-81
2022/12/22 08:10:40;;;;;;;;;;;;;;;20.82;29.52;101206.37;102128;1327;61296;-81
2022/12/22 08:13:06;;;;;;;;;;;;;;;20.84;29.72;101210.72;102286;1333;59867;-81
2022/12/22 08:15:32;;;;;;;;;;;;;;;20.86;29.74;101211.13;102005;1329;61329;-82
2022/12/22 08:17:58;;;;;;;;;;;;;;;20.90;29.87;101211.44;101671;1326;803664;-81
2022/12/22 08:20:23;;;;;;;;;;;;;;;20.92;29.95;101209.86;102233;1327;61394;-81
2022/12/22 08:22:49;;;;;;;;;;;;;;;20.95;30.09;101208.79;102089;1323;61412;-81
2022/12/22 08:25:15;;;;;;;;;;;;;;;20.96;30.32;101212.64;102205;1332;61283;-81
2022/12/22 08:27:42;;;;;;;;;;;;;;;20.98;30.38;101214.12;102208;1326;61542;-81
2022/12/22 08:30:07;;;;;;;;;;;;;;;20.99;30.59;101215.14;102257;1330;61384;-81
2022/12/22 08:32:33;;;;;;;;;;;;;;;20.99;30.75;101213.86;102317;1326;61284;-81
2022/12/22 08:35:00;;;;;;;;;;;;;;;21.00;30.86;101213.30;102282;1326;61342;-81
2022/12/22 08:37:26;;;;;;;;;;;;;;;21.00;30.85;101207.19;102219;1332;59926;-81
2022/12/22 08:39:53;;;;;;;;;;;;;;;21.00;31.01;101202.59;102208;1331;61318;-81
2022/12/22 08:42:18;;;;;;;;;;;;;;;21.00;31.22;101196.52;102212;1326;61148;-81
2022/12/22 08:44:46;;;;;;;;;;;;;;;20.99;31.22;101195.80;102181;1318;61307;-81
2022/12/22 08:47:11;;;;;;;;;;;;;;;21.00;31.46;101195.03;102181;1327;61284;-81
2022/12/22 08:49:37;;;;;;;;;;;;;;;21.00;31.42;101192.87;102138;1329;61372;-81
2022/12/22 08:52:02;;;;;;;;;;;;;;;21.00;31.57;101188.43;102228;1318;61356;-81
2022/12/22 08:54:28;;;;;;;;;;;;;;;21.00;31.52;101182.86;102266;1332;61413;-81
2022/12/22 08:56:53;;;;;;;;;;;;;;;21.00;31.59;101180.73;102265;1324;61404;-81
2022/12/22 08:59:18;;;;;;;;;;;;;;;20.99;31.52;101175.23;102197;1330;61329;-80
2022/12/22 09:01:46;;;;;;;;;;;;;;;20.99;31.55;101170.79;102234;1326;61421;-80
2022/12/22 09:04:12;;;;;;;;;;;;;;;20.98;31.49;101172.10;102281;1326;59995;-80
2022/12/22 09:06:37;;;;;;;;;;;;;;;20.98;31.68;101169.07;102213;1326;60070;-81
2022/12/22 09:09:03;;;;;;;;;;;;;;;20.97;31.56;101171.09;102084;1332;61350;-81
2022/12/22 09:11:29;;;;;;;;;;;;;;;20.96;31.49;101168.30;102095;1317;61504;-81
2022/12/22 09:13:56;;;;;;;;;;;;;;;20.96;31.61;101171.17;102191;1316;61322;-81
2022/12/22 09:16:21;;;;;;;;;;;;;;;20.95;31.58;101170.86;102238;1329;61312;-81
2022/12/22 09:18:47;;;;;;;;;;;;;;;20.95;31.64;101167.82;102207;1316;61267;-81
2022/12/22 09:21:13;;;;;;;;;;;;;;;20.95;31.68;101163.36;102307;1318;72489;-81
2022/12/22 09:23:38;;;;;;;;;;;;;;;20.95;31.57;101160.64;102299;1317;61430;-81
2022/12/22 09:26:07;;;;;;;;;;;;;;;20.96;31.63;101158.31;102304;1327;59749;-81
2022/12/22 09:28:33;;;;;;;;;;;;;;;20.95;31.53;101152.95;102285;1320;61076;-81
2022/12/22 09:30:58;;;;;;;;;;;;;;;20.96;31.70;101152.93;102270;1317;59636;-81
2022/12/22 09:33:25;;;;;;;;;;;;;;;20.95;31.52;101154.76;102285;1326;61387;-81
2022/12/22 09:35:50;;;;;;;;;;;;;;;20.95;31.54;101155.30;102251;1330;61320;-81
2022/12/22 09:38:16;;;;;;;;;;;;;;;20.96;31.57;101158.63;102300;1326;59405;-81
2022/12/22 09:40:41;;;;;;;;;;;;;;;20.97;31.62;101152.84;102306;1326;61966;-81
2022/12/22 09:43:07;;;;;;;;;;;;;;;20.98;31.72;101153.66;102310;1326;70597;-81
2022/12/22 09:45:33;;;;;;;;;;;;;;;20.99;31.77;101151.09;102219;1326;61481;-81
2022/12/22 09:47:58;;;;;;;;;;;;;;;21.00;31.68;101146.34;102234;1326;61307;-81
2022/12/22 09:50:24;;;;;;;;;;;;;;;21.01;31.91;101147.00;102264;1318;61351;-81
2022/12/22 09:53:02;;;;;;;;;;;;;;;21.02;31.70;101142.84;102160;1326;61284;-81
2022/12/22 09:55:35;;;;;;;;;;;;;;;21.03;31.85;101139.92;102156;1327;73558;-81
2022/12/22 09:58:00;;;;;;;;;;;;;;;21.03;31.77;101141.13;102159;1332;61025;-81
2022/12/22 10:00:27;;;;;;;;;;;;;;;21.04;31.88;101136.42;102140;1318;61352;-81
2022/12/22 10:02:55;;;;;;;;;;;;;;;21.05;31.74;101130.82;102083;1332;61221;-81
2022/12/22 10:05:39;;;;;;;;;;;;;;;21.05;31.92;101123.66;102164;1333;74545;-81
2022/12/22 10:08:12;;;;;;;;;;;;;;;21.05;31.96;101122.02;102226;1326;61272;-81
2022/12/22 10:10:38;;;;;;;;;;;;;;;21.06;31.84;101120.94;102133;1319;61335;-81
2022/12/22 10:13:03;;;;;;;;;;;;;;;21.07;31.86;101119.27;102233;1318;59981;-81
2022/12/22 10:15:35;;;;;;;;;;;;;;;21.07;31.85;101115.86;102299;1317;61353;-81
2022/12/22 10:18:21;;;;;;;;;;;;;;;21.07;32.03;101109.20;102225;1325;61284;-81
2022/12/22 10:21:05;;;;;;;;;;;;;;;21.08;31.98;101102.54;102188;1318;61399;-81
2022/12/22 10:23:30;;;;;;;;;;;;;;;21.08;32.08;101096.61;102115;1333;73617;-81
2022/12/22 10:25:56;;;;;;;;;;;;;;;21.09;32.12;101090.67;102043;1329;61417;-81
2022/12/22 10:28:22;;;;;;;;;;;;;;;21.09;32.14;101084.56;102208;1316;61310;-81
2022/12/22 10:30:48;;;;;;;;;;;;;;;21.10;31.96;101086.30;102254;1333;61330;-81
2022/12/22 10:33:15;;;;;;;;;;;;;;;21.10;32.07;101083.80;102271;1330;61415;-81
2022/12/22 10:35:40;;;;;;;;;;;;;;;21.10;32.26;101079.33;102074;1333;61278;-80
2022/12/22 10:38:13;;;;;;;;;;;;;;;21.10;32.25;101074.80;102195;1332;61268;-80
2022/12/22 10:40:42;;;;;;;;;;;;;;;21.11;32.30;101064.95;102092;1327;61249;-80
2022/12/22 10:43:08;;;;;;;;;;;;;;;21.12;32.19;101063.46;102073;1334;61197;-80
2022/12/22 10:45:33;;;;;;;;;;;;;;;21.12;32.18;101062.36;102139;1332;61277;-80
2022/12/22 10:47:58;;;;;;;;;;;;;;;21.12;32.21;101065.23;102137;1330;61413;-80
2022/12/22 10:50:24;;;;;;;;;;;;;;;21.12;32.17;101068.98;102185;1326;60202;-81
2022/12/22 10:52:53;;;;;;;;;;;;;;;21.11;32.15;101066.70;102107;1327;61303;-81
2022/12/22 10:55:24;;;;;;;;;;;;;;;21.11;32.20;101059.75;102295;1325;60439;-81
2022/12/22 10:57:50;;;;;;;;;;;;;;;21.12;32.36;101058.30;102169;1326;72812;-81
2022/12/22 11:00:24;;;;;;;;;;;;;;;21.12;32.21;101054.30;102151;1326;61487;-80
2022/12/22 11:02:51;;;;;;;;;;;;;;;21.13;32.39;101051.25;102249;1333;60973;-80
2022/12/22 11:05:18;;;;;;;;;;;;;;;21.13;32.28;101047.29;102119;1329;61139;-80
2022/12/22 11:07:43;;;;;;;;;;;;;;;21.13;32.35;101046.42;102145;1329;61343;-80
2022/12/22 11:10:18;;;;;;;;;;;;;;;21.12;32.37;101044.13;102076;1333;61987;-81
2022/12/22 11:12:49;;;;;;;;;;;;;;;21.12;32.36;101038.06;102168;1326;61207;-81
2022/12/22 11:15:20;;;;;;;;;;;;;;;21.11;32.37;101033.64;102193;1332;61182;-81
2022/12/22 11:17:49;;;;;;;;;;;;;;;21.10;32.15;101032.96;102202;1326;71461;-81
2022/12/22 11:20:25;;;;;;;;;;;;;;;21.09;32.32;101031.24;102139;1326;74532;-81
2022/12/22 11:22:56;;;;;;;;;;;;;;;21.08;32.35;101027.73;102114;1326;61204;-81
2022/12/22 11:25:26;;;;;;;;;;;;;;;21.08;32.58;101024.33;102176;1326;61301;-81
2022/12/22 11:27:54;;;;;;;;;;;;;;;21.07;32.25;101022.05;102163;1326;73389;-81
2022/12/22 11:30:26;;;;;;;;;;;;;;;21.06;32.32;101024.09;102236;1327;75458;-81
2022/12/22 11:32:54;;;;;;;;;;;;;;;21.06;32.38;101027.52;102272;1326;61113;-81
2022/12/22 11:35:23;;;;;;;;;;;;;;;21.05;32.49;101023.98;102246;1332;61417;-81
2022/12/22 11:37:48;;;;;;;;;;;;;;;21.05;32.37;101020.95;102262;1326;73675;-81
2022/12/22 11:40:20;;;;;;;;;;;;;;;21.05;32.46;101018.30;102156;1330;61403;-81
2022/12/22 11:43:02;;;;;;;;;;;;;;;21.04;32.57;101008.66;102186;1330;61488;-81
2022/12/22 11:45:30;;;;;;;;;;;;;;;21.04;32.47;101006.36;102277;1329;61215;-81
2022/12/22 11:48:03;;;;;;;;;;;;;;;21.04;32.48;101007.09;102210;1326;72612;-81
2022/12/22 11:50:28;;;;;;;;;;;;;;;21.03;32.51;101006.23;102081;1326;74468;-81
2022/12/22 11:52:57;;;;;;;;;;;;;;;21.03;32.55;101011.25;102198;1326;61325;-81
2022/12/22 11:55:30;;;;;;;;;;;;;;;21.02;32.61;101010.94;102138;1330;61473;-81
2022/12/22 11:58:09;;;;;;;;;;;;;;;21.02;32.70;101013.08;102163;1326;72740;-81
2022/12/22 12:00:53;;;;;;;;;;;;;;;21.02;32.50;101002.59;102020;1336;74565;-81
2022/12/22 12:03:25;;;;;;;;;;;;;;;21.02;32.45;100995.08;102185;1326;61627;-81
2022/12/22 12:05:50;;;;;;;;;;;;;;;21.01;32.68;100996.38;102191;1324;61311;-81
2022/12/22 12:08:25;;;;;;;;;;;;;;;21.00;32.64;100993.70;102162;1332;61278;-81
2022/12/22 12:10:51;;;;;;;;;;;;;;;21.00;32.62;100997.14;102163;1332;74877;-81
2022/12/22 12:13:26;;;;;;;;;;;;;;;21.00;32.79;100997.51;102151;1332;61528;-81
2022/12/22 12:15:54;;;;;;;;;;;;;;;20.99;32.78;100997.92;102175;1326;60245;-81
2022/12/22 12:18:24;;;;;;;;;;;;;;;20.99;32.63;100997.55;102140;1333;72535;-81
2022/12/22 12:20:56;;;;;;;;;;;;;;;20.99;32.56;100997.73;102119;1326;75800;-81
2022/12/22 12:23:40;;;;;;;;;;;;;;;20.99;32.76;100995.79;102154;1326;61214;-81
2022/12/22 12:26:06;;;;;;;;;;;;;;;20.99;32.61;100990.59;102211;1326;61317;-81
2022/12/22 12:28:50;;;;;;;;;;;;;;;20.99;32.55;100987.39;102202;1323;61338;-81
2022/12/22 12:31:16;;;;;;;;;;;;;;;20.99;32.63;100986.86;102293;1333;75563;-81
2022/12/22 12:33:43;;;;;;;;;;;;;;;21.00;32.56;100992.70;102079;1331;61340;-81
2022/12/22 12:36:12;;;;;;;;;;;;;;;21.00;32.59;100997.34;101985;1329;61267;-81
2022/12/22 12:38:43;;;;;;;;;;;;;;;21.00;32.70;100996.80;102164;1332;71024;-81
2022/12/22 12:41:09;;;;;;;;;;;;;;;21.00;32.65;100998.61;102216;1326;73841;-81
2022/12/22 12:43:34;;;;;;;;;;;;;;;21.00;32.80;101001.77;102244;1331;61296;-81
2022/12/22 12:45:59;;;;;;;;;;;;;;;21.00;32.74;101001.60;102178;1333;61342;-81
2022/12/22 12:48:25;;;;;;;;;;;;;;;21.00;32.69;101002.83;102183;1331;61273;-81
2022/12/22 12:50:51;;;;;;;;;;;;;;;21.00;32.76;100999.09;102261;1327;61384;-81
2022/12/22 12:53:16;;;;;;;;;;;;;;;21.01;32.82;101002.80;102192;1326;61423;-81
2022/12/22 12:55:48;;;;;;;;;;;;;;;21.01;32.76;100998.35;102288;1326;61534;-81
2022/12/22 12:58:34;;;;;;;;;;;;;;;21.01;32.76;100996.17;102326;1332;61065;-81
2022/12/22 13:01:00;;;;;;;;;;;;;;;21.01;32.82;100993.84;102271;1326;73574;-81
2022/12/22 13:03:28;;;;;;;;;;;;;;;21.01;32.85;100991.89;102251;1329;61389;-81
2022/12/22 13:05:57;;;;;;;;;;;;;;;21.00;32.93;100989.98;102308;1332;61080;-81
2022/12/22 13:08:24;;;;;;;;;;;;;;;21.00;32.84;100989.48;102266;1333;61209;-81
2022/12/22 13:10:53;;;;;;;;;;;;;;;20.99;32.80;100991.52;102571;1324;61303;-81
2022/12/22 13:13:21;;;;;;;;;;;;;;;20.97;33.04;100989.64;102132;1332;73459;-81
2022/12/22 13:15:47;;;;;;;;;;;;;;;20.96;32.95;100987.06;102234;1333;61378;-81
2022/12/22 13:18:22;;;;;;;;;;;;;;;20.95;33.01;100995.00;102272;1330;61388;-81
2022/12/22 13:20:52;;;;;;;;;;;;;;;20.93;32.94;100996.16;102176;1326;72357;-81
2022/12/22 13:23:17;;;;;;;;;;;;;;;20.91;32.89;100989.33;102194;1332;75610;-81
2022/12/22 13:25:46;;;;;;;;;;;;;;;20.89;33.01;100990.18;102234;1330;60489;-81
2022/12/22 13:28:15;;;;;;;;;;;;;;;20.87;33.09;100986.92;102242;1333;61295;-81
2022/12/22 13:30:44;;;;;;;;;;;;;;;20.85;32.88;100985.98;102212;1326;72547;-81
2022/12/22 13:33:10;;;;;;;;;;;;;;;20.83;32.93;100986.85;102077;1330;75428;-81
2022/12/22 13:35:36;;;;;;;;;;;;;;;20.80;33.09;100982.25;102156;1317;61778;-81
2022/12/22 13:38:03;;;;;;;;;;;;;;;20.78;33.07;100975.02;102160;1326;59303;-81
2022/12/22 13:40:31;;;;;;;;;;;;;;;20.75;33.04;100969.26;102121;1330;61271;-81
2022/12/22 13:43:04;;;;;;;;;;;;;;;20.74;33.01;100960.77;102154;1326;74583;-81
2022/12/22 13:45:40;;;;;;;;;;;;;;;20.72;33.16;100958.96;102170;1326;61326;-81
2022/12/22 13:48:31;;;;;;;;;;;;;;;20.70;33.19;100958.01;102125;1310;61142;-81
2022/12/22 13:50:58;;;;;;;;;;;;;;;20.68;33.16;100959.73;102207;1327;73668;-81
2022/12/22 13:53:34;;;;;;;;;;;;;;;20.66;33.25;100963.58;102127;1336;73308;-81
2022/12/22 13:55:59;;;;;;;;;;;;;;;20.65;33.03;100967.27;102177;1326;61482;-81
2022/12/22 13:58:29;;;;;;;;;;;;;;;20.63;33.16;100965.08;102104;1333;61361;-81
2022/12/22 14:01:01;;;;;;;;;;;;;;;20.60;33.17;100962.17;102158;1332;72509;-81
2022/12/22 14:03:27;;;;;;;;;;;;;;;20.58;33.23;100958.36;102113;1326;74590;-81
2022/12/22 14:05:53;;;;;;;;;;;;;;;20.56;33.22;100956.00;102151;1332;61427;-81
2022/12/22 14:08:21;;;;;;;;;;;;;;;20.54;33.28;100952.95;102148;1334;61389;-81
2022/12/22 14:10:46;;;;;;;;;;;;;;;20.53;33.23;100953.95;102110;1333;60066;-81
2022/12/22 14:13:15;;;;;;;;;;;;;;;20.51;33.36;100952.98;102056;1333;61439;-81
2022/12/22 14:15:41;;;;;;;;;;;;;;;20.49;33.16;100955.05;102133;1326;61315;-81
2022/12/22 14:18:10;;;;;;;;;;;;;;;20.47;33.47;100952.33;102108;1333;61365;-81
2022/12/22 14:20:36;;;;;;;;;;;;;;;20.46;33.32;100951.55;102072;1333;72615;-81
2022/12/22 14:23:06;;;;;;;;;;;;;;;20.44;33.30;100949.48;102140;1326;61417;-81
2022/12/22 14:25:34;;;;;;;;;;;;;;;20.43;33.29;100951.00;102151;1332;61847;-81
2022/12/22 14:27:59;;;;;;;;;;;;;;;20.41;33.29;100955.23;102167;1328;59612;-81
2022/12/22 14:30:29;;;;;;;;;;;;;;;20.40;33.52;100954.02;102075;1333;61406;-81
2022/12/22 14:32:55;;;;;;;;;;;;;;;20.39;33.44;100952.68;102101;1332;75551;-81
2022/12/22 14:35:22;;;;;;;;;;;;;;;20.38;33.47;100953.48;102037;1329;61351;-81
2022/12/22 14:37:51;;;;;;;;;;;;;;;20.37;33.53;100954.62;101974;1333;61369;-80
2022/12/22 14:40:30;;;;;;;;;;;;;;;20.36;33.52;100952.54;102018;1336;72499;-80
2022/12/22 14:42:55;;;;;;;;;;;;;;;20.35;33.47;100953.29;102052;1327;74932;-80
2022/12/22 14:45:22;;;;;;;;;;;;;;;20.34;33.40;100949.80;102117;1332;61360;-80
2022/12/22 14:47:47;;;;;;;;;;;;;;;20.34;33.39;100946.06;102068;1332;61470;-80
2022/12/22 14:50:15;;;;;;;;;;;;;;;20.32;33.52;100939.92;102075;1329;61281;-80
2022/12/22 14:53:11;;;;;;;;;;;;;;;20.32;33.41;100937.09;102084;1327;61227;-80
2022/12/22 14:55:37;;;;;;;;;;;;;;;20.30;33.44;100930.55;102055;1337;60023;-80
2022/12/22 14:58:02;;;;;;;;;;;;;;;20.30;33.42;100927.36;101946;1332;61442;-80
2022/12/22 15:00:35;;;;;;;;;;;;;;;20.29;33.53;100924.93;101938;1337;61355;-80
2022/12/22 15:03:05;;;;;;;;;;;;;;;20.29;33.50;100926.04;101915;1335;74598;-80
2022/12/22 15:05:36;;;;;;;;;;;;;;;20.28;33.48;100923.58;101914;1337;61363;-80
2022/12/22 15:08:01;;;;;;;;;;;;;;;20.27;33.42;100919.69;101847;1337;61705;-80
2022/12/22 15:10:53;;;;;;;;;;;;;;;20.26;33.40;100923.48;101826;1336;61778;-81
2022/12/22 15:13:20;;;;;;;;;;;;;;;20.25;33.38;100923.55;101471;1344;74446;-80
2022/12/22 15:15:46;;;;;;;;;;;;;;;20.25;33.36;100923.94;101481;1338;60051;-80
2022/12/22 15:18:12;;;;;;;;;;;;;;;20.24;33.30;100929.52;101406;1340;61464;-80
2022/12/22 15:20:38;;;;;;;;;;;;;;;20.23;33.24;100927.25;101500;1341;60096;-80
2022/12/22 15:23:07;;;;;;;;;;;;;;;20.23;33.45;100927.67;101446;1342;61381;-80
2022/12/22 15:25:32;;;;;;;;;;;;;;;20.22;33.44;100925.58;101493;1335;61384;-80
2022/12/22 15:27:58;;;;;;;;;;;;;;;20.20;33.31;100926.75;101652;1338;61262;-80
2022/12/22 15:30:23;;;;;;;;;;;;;;;20.20;33.51;100923.92;101541;1345;61299;-80
2022/12/22 15:32:49;;;;;;;;;;;;;;;20.19;33.43;100922.40;101519;1339;60162;-80
2022/12/22 15:35:15;;;;;;;;;;;;;;;20.18;33.30;100929.60;101628;1329;60148;-80
2022/12/22 15:37:40;;;;;;;;;;;;;;;20.17;33.44;100931.10;101493;1337;61313;-80
2022/12/22 15:40:11;;;;;;;;;;;;;;;20.16;33.34;100933.13;101573;1344;59900;-80
2022/12/22 15:42:37;;;;;;;;;;;;;;;20.15;33.52;100936.40;101611;1344;72584;-80
2022/12/22 15:45:02;;;;;;;;;;;;;;;20.15;33.47;100939.99;101504;1344;60133;-80
2022/12/22 15:47:28;;;;;;;;;;;;;;;20.14;33.46;100943.25;101553;1343;61333;-80
2022/12/22 15:49:53;;;;;;;;;;;;;;;20.14;33.57;100946.65;101605;1336;61301;-80
2022/12/22 15:52:19;;;;;;;;;;;;;;;20.14;33.68;100947.02;102034;1335;61460;-80
2022/12/22 15:54:44;;;;;;;;;;;;;;;20.13;33.50;100941.68;101960;1336;61434;-80
2022/12/22 15:57:10;;;;;;;;;;;;;;;20.14;33.55;100942.19;102082;1332;61300;-80
2022/12/22 15:59:35;;;;;;;;;;;;;;;20.13;33.53;100939.21;102051;1332;61385;-80
2022/12/22 16:02:01;;;;;;;;;;;;;;;20.13;33.46;100941.91;102027;1330;61278;-80
2022/12/22 16:04:27;;;;;;;;;;;;;;;20.12;33.33;100942.50;101989;1329;60887;-80
2022/12/22 16:06:52;;;;;;;;;;;;;;;20.11;33.40;100943.59;102026;1328;73468;-80